sensor_id;sensor_type;location;lat;lon;timestamp;P1;durP1;ratioP1;P2;durP2;ratioP2
19830;SDS011;10076;52.008;4.708;2023-04-24T00:00:54;3.97;;;2.10;;
19830;SDS011;10076;52.008;4.708;2023-04-24T00:03:24;2.40;;;1.87;;
19830;SDS011;10076;52.008;4.708;2023-04-24T00:05:50;3.43;;;2.03;;
19830;SDS011;10076;52.008;4.708;2023-04-24T00:08:16;2.77;;;1.90;;
19830;SDS011;10076;52.008;4.708;2023-04-24T00:10:41;1.80;;;1.43;;
19830;SDS011;10076;52.008;4.708;2023-04-24T00:13:07;5.03;;;1.83;;
19830;SDS011;10076;52.008;4.708;2023-04-24T00:15:32;3.37;;;1.90;;
19830;SDS011;10076;52.008;4.708;2023-04-24T00:17:58;1.63;;;1.53;;
19830;SDS011;10076;52.008;4.708;2023-04-24T00:20:23;4.70;;;1.60;;
19830;SDS011;10076;52.008;4.708;2023-04-24T00:22:48;2.63;;;1.90;;
19830;SDS011;10076;52.008;4.708;2023-04-24T00:25:13;2.80;;;2.07;;
19830;SDS011;10076;52.008;4.708;2023-04-24T00:27:39;2.47;;;1.80;;
19830;SDS011;10076;52.008;4.708;2023-04-24T00:30:04;3.57;;;2.37;;
19830;SDS011;10076;52.008;4.708;2023-04-24T00:32:31;6.00;;;1.87;;
19830;SDS011;10076;52.008;4.708;2023-04-24T00:34:56;3.67;;;2.10;;
19830;SDS011;10076;52.008;4.708;2023-04-24T00:37:21;2.53;;;1.67;;
19830;SDS011;10076;52.008;4.708;2023-04-24T00:39:46;2.77;;;1.57;;
19830;SDS011;10076;52.008;4.708;2023-04-24T00:42:12;2.50;;;1.43;;
19830;SDS011;10076;52.008;4.708;2023-04-24T00:44:37;1.53;;;1.27;;
19830;SDS011;10076;52.008;4.708;2023-04-24T00:47:03;1.87;;;1.23;;
19830;SDS011;10076;52.008;4.708;2023-04-24T00:49:28;1.63;;;1.20;;
19830;SDS011;10076;52.008;4.708;2023-04-24T00:51:54;1.60;;;1.37;;
19830;SDS011;10076;52.008;4.708;2023-04-24T00:54:19;1.97;;;1.30;;
19830;SDS011;10076;52.008;4.708;2023-04-24T00:56:45;1.70;;;1.40;;
19830;SDS011;10076;52.008;4.708;2023-04-24T00:59:11;2.03;;;1.60;;
19830;SDS011;10076;52.008;4.708;2023-04-24T01:01:38;2.50;;;1.63;;
19830;SDS011;10076;52.008;4.708;2023-04-24T01:04:07;2.20;;;1.60;;
19830;SDS011;10076;52.008;4.708;2023-04-24T01:06:33;2.50;;;1.33;;
19830;SDS011;10076;52.008;4.708;2023-04-24T01:08:59;2.80;;;1.90;;
19830;SDS011;10076;52.008;4.708;2023-04-24T01:11:25;3.40;;;1.70;;
19830;SDS011;10076;52.008;4.708;2023-04-24T01:13:51;2.53;;;1.43;;
19830;SDS011;10076;52.008;4.708;2023-04-24T01:16:17;2.80;;;1.70;;
19830;SDS011;10076;52.008;4.708;2023-04-24T01:18:44;2.53;;;1.77;;
19830;SDS011;10076;52.008;4.708;2023-04-24T01:21:10;4.57;;;1.70;;
19830;SDS011;10076;52.008;4.708;2023-04-24T01:23:39;3.50;;;1.93;;
19830;SDS011;10076;52.008;4.708;2023-04-24T01:26:05;2.53;;;1.53;;
19830;SDS011;10076;52.008;4.708;2023-04-24T01:28:30;2.47;;;1.57;;
19830;SDS011;10076;52.008;4.708;2023-04-24T01:30:56;2.20;;;1.50;;
19830;SDS011;10076;52.008;4.708;2023-04-24T01:33:21;6.00;;;2.53;;
19830;SDS011;10076;52.008;4.708;2023-04-24T01:35:47;5.33;;;1.77;;
19830;SDS011;10076;52.008;4.708;2023-04-24T01:38:13;2.47;;;1.87;;
19830;SDS011;10076;52.008;4.708;2023-04-24T01:40:38;3.47;;;1.83;;
19830;SDS011;10076;52.008;4.708;2023-04-24T01:43:04;3.00;;;2.30;;
19830;SDS011;10076;52.008;4.708;2023-04-24T01:45:29;3.67;;;2.13;;
19830;SDS011;10076;52.008;4.708;2023-04-24T01:47:55;3.63;;;1.97;;
19830;SDS011;10076;52.008;4.708;2023-04-24T01:50:21;2.13;;;1.40;;
19830;SDS011;10076;52.008;4.708;2023-04-24T01:52:46;3.70;;;2.07;;
19830;SDS011;10076;52.008;4.708;2023-04-24T01:55:11;2.20;;;1.67;;
19830;SDS011;10076;52.008;4.708;2023-04-24T01:57:37;4.70;;;2.30;;
19830;SDS011;10076;52.008;4.708;2023-04-24T02:00:03;3.07;;;2.30;;
19830;SDS011;10076;52.008;4.708;2023-04-24T02:02:30;3.23;;;2.00;;
19830;SDS011;10076;52.008;4.708;2023-04-24T02:04:56;4.07;;;1.87;;
19830;SDS011;10076;52.008;4.708;2023-04-24T02:07:22;4.00;;;2.00;;
19830;SDS011;10076;52.008;4.708;2023-04-24T02:09:47;3.10;;;1.93;;
19830;SDS011;10076;52.008;4.708;2023-04-24T02:12:13;2.30;;;1.50;;
19830;SDS011;10076;52.008;4.708;2023-04-24T02:14:39;3.30;;;1.87;;
19830;SDS011;10076;52.008;4.708;2023-04-24T02:17:04;1.83;;;1.27;;
19830;SDS011;10076;52.008;4.708;2023-04-24T02:19:30;2.40;;;1.50;;
19830;SDS011;10076;52.008;4.708;2023-04-24T02:21:55;2.43;;;1.30;;
19830;SDS011;10076;52.008;4.708;2023-04-24T02:24:21;1.87;;;1.20;;
19830;SDS011;10076;52.008;4.708;2023-04-24T02:26:46;2.50;;;1.27;;
19830;SDS011;10076;52.008;4.708;2023-04-24T02:29:11;2.60;;;1.20;;
19830;SDS011;10076;52.008;4.708;2023-04-24T02:31:36;1.43;;;1.33;;
19830;SDS011;10076;52.008;4.708;2023-04-24T02:34:02;2.13;;;1.40;;
19830;SDS011;10076;52.008;4.708;2023-04-24T02:36:27;1.30;;;1.07;;
19830;SDS011;10076;52.008;4.708;2023-04-24T02:38:52;1.97;;;1.47;;
19830;SDS011;10076;52.008;4.708;2023-04-24T02:41:18;1.80;;;1.20;;
19830;SDS011;10076;52.008;4.708;2023-04-24T02:43:43;2.30;;;1.27;;
19830;SDS011;10076;52.008;4.708;2023-04-24T02:46:08;1.57;;;1.30;;
19830;SDS011;10076;52.008;4.708;2023-04-24T02:48:34;2.20;;;1.23;;
19830;SDS011;10076;52.008;4.708;2023-04-24T02:50:59;2.10;;;1.33;;
19830;SDS011;10076;52.008;4.708;2023-04-24T02:53:24;1.47;;;1.00;;
19830;SDS011;10076;52.008;4.708;2023-04-24T02:55:50;1.80;;;1.03;;
19830;SDS011;10076;52.008;4.708;2023-04-24T02:58:15;3.17;;;1.37;;
19830;SDS011;10076;52.008;4.708;2023-04-24T03:00:41;1.90;;;1.37;;
19830;SDS011;10076;52.008;4.708;2023-04-24T03:03:08;3.13;;;1.33;;
19830;SDS011;10076;52.008;4.708;2023-04-24T03:05:33;1.97;;;1.30;;
19830;SDS011;10076;52.008;4.708;2023-04-24T03:07:58;5.47;;;1.87;;
19830;SDS011;10076;52.008;4.708;2023-04-24T03:10:24;2.30;;;1.67;;
19830;SDS011;10076;52.008;4.708;2023-04-24T03:12:49;2.87;;;1.40;;
19830;SDS011;10076;52.008;4.708;2023-04-24T03:15:14;2.50;;;1.37;;
19830;SDS011;10076;52.008;4.708;2023-04-24T03:17:41;1.47;;;0.80;;
19830;SDS011;10076;52.008;4.708;2023-04-24T03:20:06;0.77;;;0.60;;
19830;SDS011;10076;52.008;4.708;2023-04-24T03:22:33;0.90;;;0.50;;
19830;SDS011;10076;52.008;4.708;2023-04-24T03:24:59;0.87;;;0.57;;
19830;SDS011;10076;52.008;4.708;2023-04-24T03:27:24;0.50;;;0.50;;
19830;SDS011;10076;52.008;4.708;2023-04-24T03:29:50;0.50;;;0.50;;
19830;SDS011;10076;52.008;4.708;2023-04-24T03:32:20;0.97;;;0.80;;
19830;SDS011;10076;52.008;4.708;2023-04-24T03:34:47;0.57;;;0.57;;
19830;SDS011;10076;52.008;4.708;2023-04-24T03:37:12;0.67;;;0.50;;
19830;SDS011;10076;52.008;4.708;2023-04-24T03:39:37;0.50;;;0.50;;
19830;SDS011;10076;52.008;4.708;2023-04-24T03:42:03;0.60;;;0.60;;
19830;SDS011;10076;52.008;4.708;2023-04-24T03:44:28;0.83;;;0.73;;
19830;SDS011;10076;52.008;4.708;2023-04-24T03:46:53;3.23;;;1.07;;
19830;SDS011;10076;52.008;4.708;2023-04-24T03:49:18;4.07;;;0.80;;
19830;SDS011;10076;52.008;4.708;2023-04-24T03:51:44;0.80;;;0.70;;
19830;SDS011;10076;52.008;4.708;2023-04-24T03:54:09;1.43;;;0.60;;
19830;SDS011;10076;52.008;4.708;2023-04-24T03:56:34;0.50;;;0.50;;
19830;SDS011;10076;52.008;4.708;2023-04-24T03:59:00;1.17;;;1.03;;
19830;SDS011;10076;52.008;4.708;2023-04-24T04:01:25;0.60;;;0.60;;
19830;SDS011;10076;52.008;4.708;2023-04-24T04:03:50;0.50;;;0.50;;
19830;SDS011;10076;52.008;4.708;2023-04-24T04:06:16;2.60;;;0.80;;
19830;SDS011;10076;52.008;4.708;2023-04-24T04:08:41;0.40;;;0.40;;
19830;SDS011;10076;52.008;4.708;2023-04-24T04:11:06;0.47;;;0.47;;
19830;SDS011;10076;52.008;4.708;2023-04-24T04:13:31;0.57;;;0.57;;
19830;SDS011;10076;52.008;4.708;2023-04-24T04:15:57;0.40;;;0.40;;
19830;SDS011;10076;52.008;4.708;2023-04-24T04:18:22;0.53;;;0.53;;
19830;SDS011;10076;52.008;4.708;2023-04-24T04:20:47;0.83;;;0.70;;
19830;SDS011;10076;52.008;4.708;2023-04-24T04:23:13;1.20;;;0.80;;
19830;SDS011;10076;52.008;4.708;2023-04-24T04:25:38;1.13;;;1.03;;
19830;SDS011;10076;52.008;4.708;2023-04-24T04:28:03;2.07;;;0.63;;
19830;SDS011;10076;52.008;4.708;2023-04-24T04:30:29;0.70;;;0.70;;
19830;SDS011;10076;52.008;4.708;2023-04-24T04:32:57;1.80;;;0.60;;
19830;SDS011;10076;52.008;4.708;2023-04-24T04:35:23;0.63;;;0.63;;
19830;SDS011;10076;52.008;4.708;2023-04-24T04:37:49;1.57;;;0.70;;
19830;SDS011;10076;52.008;4.708;2023-04-24T04:40:16;0.93;;;0.70;;
19830;SDS011;10076;52.008;4.708;2023-04-24T04:42:41;3.97;;;1.10;;
19830;SDS011;10076;52.008;4.708;2023-04-24T04:45:07;2.27;;;1.03;;
19830;SDS011;10076;52.008;4.708;2023-04-24T04:47:34;2.47;;;0.70;;
19830;SDS011;10076;52.008;4.708;2023-04-24T04:49:59;1.33;;;0.63;;
19830;SDS011;10076;52.008;4.708;2023-04-24T04:52:25;2.60;;;0.60;;
19830;SDS011;10076;52.008;4.708;2023-04-24T04:54:50;1.20;;;0.80;;
19830;SDS011;10076;52.008;4.708;2023-04-24T04:57:16;1.00;;;0.80;;
19830;SDS011;10076;52.008;4.708;2023-04-24T04:59:41;1.20;;;1.00;;
19830;SDS011;10076;52.008;4.708;2023-04-24T05:02:07;2.40;;;0.90;;
19830;SDS011;10076;52.008;4.708;2023-04-24T05:04:32;1.70;;;1.07;;
19830;SDS011;10076;52.008;4.708;2023-04-24T05:06:57;1.10;;;1.00;;
19830;SDS011;10076;52.008;4.708;2023-04-24T05:09:23;3.83;;;1.60;;
19830;SDS011;10076;52.008;4.708;2023-04-24T05:11:48;2.43;;;1.57;;
19830;SDS011;10076;52.008;4.708;2023-04-24T05:14:13;4.37;;;2.00;;
19830;SDS011;10076;52.008;4.708;2023-04-24T05:16:39;3.10;;;1.77;;
19830;SDS011;10076;52.008;4.708;2023-04-24T05:19:05;3.40;;;1.57;;
19830;SDS011;10076;52.008;4.708;2023-04-24T05:21:30;2.67;;;1.83;;
19830;SDS011;10076;52.008;4.708;2023-04-24T05:23:56;4.17;;;1.90;;
19830;SDS011;10076;52.008;4.708;2023-04-24T05:26:21;3.57;;;2.23;;
19830;SDS011;10076;52.008;4.708;2023-04-24T05:28:47;4.57;;;2.07;;
19830;SDS011;10076;52.008;4.708;2023-04-24T05:31:12;8.10;;;2.97;;
19830;SDS011;10076;52.008;4.708;2023-04-24T05:33:38;6.50;;;2.80;;
19830;SDS011;10076;52.008;4.708;2023-04-24T05:36:03;8.87;;;3.83;;
19830;SDS011;10076;52.008;4.708;2023-04-24T05:38:30;5.23;;;3.67;;
19830;SDS011;10076;52.008;4.708;2023-04-24T05:40:55;7.63;;;4.40;;
19830;SDS011;10076;52.008;4.708;2023-04-24T05:43:21;7.47;;;4.37;;
19830;SDS011;10076;52.008;4.708;2023-04-24T05:45:46;8.90;;;4.93;;
19830;SDS011;10076;52.008;4.708;2023-04-24T05:48:11;9.10;;;4.93;;
19830;SDS011;10076;52.008;4.708;2023-04-24T05:50:36;18.63;;;6.17;;
19830;SDS011;10076;52.008;4.708;2023-04-24T05:53:02;12.30;;;5.53;;
19830;SDS011;10076;52.008;4.708;2023-04-24T05:55:27;10.23;;;5.33;;
19830;SDS011;10076;52.008;4.708;2023-04-24T05:57:53;10.90;;;5.67;;
19830;SDS011;10076;52.008;4.708;2023-04-24T06:00:18;10.27;;;4.63;;
19830;SDS011;10076;52.008;4.708;2023-04-24T06:02:45;7.67;;;4.30;;
19830;SDS011;10076;52.008;4.708;2023-04-24T06:05:11;10.27;;;5.23;;
19830;SDS011;10076;52.008;4.708;2023-04-24T06:07:36;10.63;;;5.37;;
19830;SDS011;10076;52.008;4.708;2023-04-24T06:10:02;10.83;;;4.70;;
19830;SDS011;10076;52.008;4.708;2023-04-24T06:12:27;10.10;;;4.33;;
19830;SDS011;10076;52.008;4.708;2023-04-24T06:14:53;11.07;;;5.57;;
19830;SDS011;10076;52.008;4.708;2023-04-24T06:17:19;9.43;;;4.23;;
19830;SDS011;10076;52.008;4.708;2023-04-24T06:19:44;8.17;;;4.67;;
19830;SDS011;10076;52.008;4.708;2023-04-24T06:22:09;9.70;;;4.70;;
19830;SDS011;10076;52.008;4.708;2023-04-24T06:24:35;12.20;;;4.37;;
19830;SDS011;10076;52.008;4.708;2023-04-24T06:27:00;13.80;;;4.97;;
19830;SDS011;10076;52.008;4.708;2023-04-24T06:29:26;6.90;;;3.97;;
19830;SDS011;10076;52.008;4.708;2023-04-24T06:31:52;11.67;;;4.07;;
19830;SDS011;10076;52.008;4.708;2023-04-24T06:34:17;9.73;;;3.90;;
19830;SDS011;10076;52.008;4.708;2023-04-24T06:36:42;7.47;;;3.03;;
19830;SDS011;10076;52.008;4.708;2023-04-24T06:39:08;9.23;;;2.87;;
19830;SDS011;10076;52.008;4.708;2023-04-24T06:41:33;13.37;;;3.27;;
19830;SDS011;10076;52.008;4.708;2023-04-24T06:43:59;12.13;;;3.33;;
19830;SDS011;10076;52.008;4.708;2023-04-24T06:46:24;21.37;;;3.57;;
19830;SDS011;10076;52.008;4.708;2023-04-24T06:48:51;4.73;;;2.63;;
19830;SDS011;10076;52.008;4.708;2023-04-24T06:51:17;11.57;;;3.30;;
19830;SDS011;10076;52.008;4.708;2023-04-24T06:53:43;10.97;;;3.20;;
19830;SDS011;10076;52.008;4.708;2023-04-24T06:56:08;6.07;;;3.07;;
19830;SDS011;10076;52.008;4.708;2023-04-24T06:58:33;9.90;;;3.30;;
19830;SDS011;10076;52.008;4.708;2023-04-24T07:00:59;14.53;;;3.00;;
19830;SDS011;10076;52.008;4.708;2023-04-24T07:03:24;4.83;;;3.27;;
19830;SDS011;10076;52.008;4.708;2023-04-24T07:05:50;10.43;;;3.53;;
19830;SDS011;10076;52.008;4.708;2023-04-24T07:08:16;11.10;;;2.87;;
19830;SDS011;10076;52.008;4.708;2023-04-24T07:10:42;8.77;;;3.03;;
19830;SDS011;10076;52.008;4.708;2023-04-24T07:13:08;8.33;;;2.70;;
19830;SDS011;10076;52.008;4.708;2023-04-24T07:15:34;6.83;;;3.33;;
19830;SDS011;10076;52.008;4.708;2023-04-24T07:17:59;6.67;;;2.30;;
19830;SDS011;10076;52.008;4.708;2023-04-24T07:20:25;3.70;;;1.97;;
19830;SDS011;10076;52.008;4.708;2023-04-24T07:22:50;8.40;;;2.23;;
19830;SDS011;10076;52.008;4.708;2023-04-24T07:25:16;3.77;;;1.97;;
19830;SDS011;10076;52.008;4.708;2023-04-24T07:27:42;6.30;;;2.03;;
19830;SDS011;10076;52.008;4.708;2023-04-24T07:30:07;6.67;;;2.33;;
19830;SDS011;10076;52.008;4.708;2023-04-24T07:32:33;8.07;;;2.33;;
19830;SDS011;10076;52.008;4.708;2023-04-24T07:34:59;6.43;;;1.80;;
19830;SDS011;10076;52.008;4.708;2023-04-24T07:37:24;7.53;;;2.00;;
19830;SDS011;10076;52.008;4.708;2023-04-24T07:39:50;6.47;;;2.17;;
19830;SDS011;10076;52.008;4.708;2023-04-24T07:42:15;5.10;;;2.03;;
19830;SDS011;10076;52.008;4.708;2023-04-24T07:44:40;5.93;;;1.70;;
19830;SDS011;10076;52.008;4.708;2023-04-24T07:47:06;3.07;;;1.83;;
19830;SDS011;10076;52.008;4.708;2023-04-24T07:49:31;4.60;;;1.77;;
19830;SDS011;10076;52.008;4.708;2023-04-24T07:51:58;5.63;;;1.87;;
19830;SDS011;10076;52.008;4.708;2023-04-24T07:54:25;4.03;;;1.60;;
19830;SDS011;10076;52.008;4.708;2023-04-24T07:56:50;5.47;;;2.07;;
19830;SDS011;10076;52.008;4.708;2023-04-24T07:59:16;5.27;;;1.80;;
19830;SDS011;10076;52.008;4.708;2023-04-24T08:01:41;5.33;;;1.70;;
19830;SDS011;10076;52.008;4.708;2023-04-24T08:04:07;8.33;;;1.80;;
19830;SDS011;10076;52.008;4.708;2023-04-24T08:06:32;11.60;;;1.83;;
19830;SDS011;10076;52.008;4.708;2023-04-24T08:08:57;8.17;;;1.70;;
19830;SDS011;10076;52.008;4.708;2023-04-24T08:11:23;3.60;;;1.73;;
19830;SDS011;10076;52.008;4.708;2023-04-24T08:13:49;7.43;;;1.63;;
19830;SDS011;10076;52.008;4.708;2023-04-24T08:16:14;4.53;;;1.50;;
19830;SDS011;10076;52.008;4.708;2023-04-24T08:18:40;6.07;;;1.63;;
19830;SDS011;10076;52.008;4.708;2023-04-24T08:21:06;4.03;;;1.40;;
19830;SDS011;10076;52.008;4.708;2023-04-24T08:23:31;4.80;;;1.60;;
19830;SDS011;10076;52.008;4.708;2023-04-24T08:25:56;7.27;;;1.63;;
19830;SDS011;10076;52.008;4.708;2023-04-24T08:28:22;4.83;;;1.87;;
19830;SDS011;10076;52.008;4.708;2023-04-24T08:30:48;4.20;;;1.67;;
19830;SDS011;10076;52.008;4.708;2023-04-24T08:33:13;5.10;;;1.70;;
19830;SDS011;10076;52.008;4.708;2023-04-24T08:35:39;6.27;;;1.77;;
19830;SDS011;10076;52.008;4.708;2023-04-24T08:38:05;5.70;;;1.70;;
19830;SDS011;10076;52.008;4.708;2023-04-24T08:40:30;4.10;;;1.33;;
19830;SDS011;10076;52.008;4.708;2023-04-24T08:42:58;3.40;;;1.60;;
19830;SDS011;10076;52.008;4.708;2023-04-24T08:45:24;4.60;;;2.10;;
19830;SDS011;10076;52.008;4.708;2023-04-24T08:47:50;5.23;;;1.90;;
19830;SDS011;10076;52.008;4.708;2023-04-24T08:50:18;3.47;;;1.17;;
19830;SDS011;10076;52.008;4.708;2023-04-24T08:52:43;5.07;;;1.37;;
19830;SDS011;10076;52.008;4.708;2023-04-24T08:55:09;2.97;;;1.53;;
19830;SDS011;10076;52.008;4.708;2023-04-24T08:57:34;2.00;;;1.30;;
19830;SDS011;10076;52.008;4.708;2023-04-24T09:00:03;4.90;;;1.67;;
19830;SDS011;10076;52.008;4.708;2023-04-24T09:02:29;4.10;;;1.27;;
19830;SDS011;10076;52.008;4.708;2023-04-24T09:04:56;6.87;;;1.70;;
19830;SDS011;10076;52.008;4.708;2023-04-24T09:07:22;4.03;;;1.50;;
19830;SDS011;10076;52.008;4.708;2023-04-24T09:09:50;4.90;;;1.20;;
19830;SDS011;10076;52.008;4.708;2023-04-24T09:12:16;1.43;;;0.90;;
19830;SDS011;10076;52.008;4.708;2023-04-24T09:14:42;3.50;;;1.07;;
19830;SDS011;10076;52.008;4.708;2023-04-24T09:17:10;4.90;;;1.00;;
19830;SDS011;10076;52.008;4.708;2023-04-24T09:19:36;1.97;;;0.90;;
19830;SDS011;10076;52.008;4.708;2023-04-24T09:22:04;2.30;;;0.70;;
19830;SDS011;10076;52.008;4.708;2023-04-24T09:24:31;2.77;;;0.70;;
19830;SDS011;10076;52.008;4.708;2023-04-24T09:26:57;4.47;;;0.90;;
19830;SDS011;10076;52.008;4.708;2023-04-24T09:29:24;5.50;;;1.10;;
19830;SDS011;10076;52.008;4.708;2023-04-24T09:31:49;1.87;;;1.20;;
19830;SDS011;10076;52.008;4.708;2023-04-24T09:34:19;1.10;;;0.70;;
19830;SDS011;10076;52.008;4.708;2023-04-24T09:36:50;0.90;;;0.70;;
19830;SDS011;10076;52.008;4.708;2023-04-24T09:39:16;3.43;;;1.10;;
19830;SDS011;10076;52.008;4.708;2023-04-24T09:41:52;4.07;;;0.90;;
19830;SDS011;10076;52.008;4.708;2023-04-24T09:44:22;2.43;;;0.70;;
19830;SDS011;10076;52.008;4.708;2023-04-24T09:46:56;2.53;;;0.90;;
19830;SDS011;10076;52.008;4.708;2023-04-24T09:49:27;1.77;;;0.90;;
19830;SDS011;10076;52.008;4.708;2023-04-24T09:52:06;3.23;;;1.00;;
19830;SDS011;10076;52.008;4.708;2023-04-24T09:54:35;3.13;;;0.90;;
19830;SDS011;10076;52.008;4.708;2023-04-24T09:57:04;0.97;;;0.87;;
19830;SDS011;10076;52.008;4.708;2023-04-24T09:59:32;3.37;;;0.87;;
19830;SDS011;10076;52.008;4.708;2023-04-24T10:01:57;0.73;;;0.73;;
19830;SDS011;10076;52.008;4.708;2023-04-24T10:04:25;1.07;;;0.60;;
19830;SDS011;10076;52.008;4.708;2023-04-24T10:06:52;0.90;;;0.70;;
19830;SDS011;10076;52.008;4.708;2023-04-24T10:09:19;0.73;;;0.50;;
19830;SDS011;10076;52.008;4.708;2023-04-24T10:11:46;0.53;;;0.53;;
19830;SDS011;10076;52.008;4.708;2023-04-24T10:14:22;2.03;;;0.83;;
19830;SDS011;10076;52.008;4.708;2023-04-24T10:16:50;1.30;;;0.93;;
19830;SDS011;10076;52.008;4.708;2023-04-24T10:19:18;3.13;;;0.70;;
19830;SDS011;10076;52.008;4.708;2023-04-24T10:21:44;1.60;;;1.13;;
19830;SDS011;10076;52.008;4.708;2023-04-24T10:24:17;1.70;;;0.97;;
19830;SDS011;10076;52.008;4.708;2023-04-24T10:26:43;1.20;;;0.70;;
19830;SDS011;10076;52.008;4.708;2023-04-24T10:29:14;1.10;;;1.00;;
19830;SDS011;10076;52.008;4.708;2023-04-24T10:31:40;2.00;;;0.60;;
19830;SDS011;10076;52.008;4.708;2023-04-24T10:34:06;1.37;;;0.90;;
19830;SDS011;10076;52.008;4.708;2023-04-24T10:36:34;0.67;;;0.60;;
19830;SDS011;10076;52.008;4.708;2023-04-24T10:39:01;1.80;;;0.67;;
19830;SDS011;10076;52.008;4.708;2023-04-24T10:41:29;0.50;;;0.50;;
19830;SDS011;10076;52.008;4.708;2023-04-24T10:44:07;1.23;;;0.80;;
19830;SDS011;10076;52.008;4.708;2023-04-24T10:46:33;1.30;;;0.47;;
19830;SDS011;10076;52.008;4.708;2023-04-24T10:48:59;2.83;;;0.93;;
19830;SDS011;10076;52.008;4.708;2023-04-24T10:51:48;3.90;;;0.73;;
19830;SDS011;10076;52.008;4.708;2023-04-24T10:59:47;1.97;;;0.60;;
19830;SDS011;10076;52.008;4.708;2023-04-24T11:02:14;1.17;;;0.80;;
19830;SDS011;10076;52.008;4.708;2023-04-24T11:04:40;4.43;;;0.73;;
19830;SDS011;10076;52.008;4.708;2023-04-24T11:07:08;3.30;;;1.27;;
19830;SDS011;10076;52.008;4.708;2023-04-24T11:09:34;2.03;;;0.80;;
19830;SDS011;10076;52.008;4.708;2023-04-24T11:12:05;1.47;;;0.90;;
19830;SDS011;10076;52.008;4.708;2023-04-24T11:17:32;2.77;;;0.87;;
19830;SDS011;10076;52.008;4.708;2023-04-24T11:20:02;3.27;;;1.00;;
19830;SDS011;10076;52.008;4.708;2023-04-24T11:22:33;3.20;;;0.80;;
19830;SDS011;10076;52.008;4.708;2023-04-24T11:25:00;4.83;;;1.37;;
19830;SDS011;10076;52.008;4.708;2023-04-24T11:27:30;3.83;;;0.70;;
19830;SDS011;10076;52.008;4.708;2023-04-24T11:32:26;1.50;;;0.70;;
19830;SDS011;10076;52.008;4.708;2023-04-24T11:34:57;1.93;;;0.70;;
19830;SDS011;10076;52.008;4.708;2023-04-24T11:37:32;3.17;;;0.87;;
19830;SDS011;10076;52.008;4.708;2023-04-24T11:40:00;3.33;;;1.03;;
19830;SDS011;10076;52.008;4.708;2023-04-24T11:42:25;2.13;;;0.60;;
19830;SDS011;10076;52.008;4.708;2023-04-24T11:44:54;3.10;;;0.70;;
19830;SDS011;10076;52.008;4.708;2023-04-24T11:47:30;2.63;;;0.90;;
19830;SDS011;10076;52.008;4.708;2023-04-24T11:49:58;1.70;;;0.90;;
19830;SDS011;10076;52.008;4.708;2023-04-24T11:52:25;2.17;;;0.87;;
19830;SDS011;10076;52.008;4.708;2023-04-24T11:54:51;5.07;;;1.00;;
19830;SDS011;10076;52.008;4.708;2023-04-24T11:57:18;1.20;;;0.70;;
19830;SDS011;10076;52.008;4.708;2023-04-24T11:59:45;6.43;;;1.03;;
19830;SDS011;10076;52.008;4.708;2023-04-24T12:02:19;4.67;;;1.00;;
19830;SDS011;10076;52.008;4.708;2023-04-24T12:04:45;5.60;;;1.30;;
19830;SDS011;10076;52.008;4.708;2023-04-24T12:07:11;3.27;;;1.20;;
19830;SDS011;10076;52.008;4.708;2023-04-24T12:09:46;2.10;;;1.00;;
19830;SDS011;10076;52.008;4.708;2023-04-24T12:12:13;3.23;;;0.90;;
19830;SDS011;10076;52.008;4.708;2023-04-24T12:17:17;4.83;;;1.10;;
19830;SDS011;10076;52.008;4.708;2023-04-24T12:19:46;5.90;;;1.17;;
19830;SDS011;10076;52.008;4.708;2023-04-24T12:22:12;1.93;;;1.17;;
19830;SDS011;10076;52.008;4.708;2023-04-24T12:24:55;3.70;;;1.10;;
19830;SDS011;10076;52.008;4.708;2023-04-24T12:27:21;1.67;;;0.87;;
19830;SDS011;10076;52.008;4.708;2023-04-24T12:29:56;5.20;;;1.10;;
19830;SDS011;10076;52.008;4.708;2023-04-24T12:32:22;1.53;;;1.40;;
19830;SDS011;10076;52.008;4.708;2023-04-24T12:34:54;1.30;;;0.97;;
19830;SDS011;10076;52.008;4.708;2023-04-24T12:37:21;4.90;;;1.47;;
19830;SDS011;10076;52.008;4.708;2023-04-24T12:40:01;5.70;;;1.47;;
19830;SDS011;10076;52.008;4.708;2023-04-24T12:42:27;4.13;;;1.40;;
19830;SDS011;10076;52.008;4.708;2023-04-24T12:44:56;3.43;;;1.20;;
19830;SDS011;10076;52.008;4.708;2023-04-24T12:47:24;4.03;;;1.17;;
19830;SDS011;10076;52.008;4.708;2023-04-24T12:49:50;6.30;;;1.57;;
19830;SDS011;10076;52.008;4.708;2023-04-24T12:52:17;4.33;;;1.60;;
19830;SDS011;10076;52.008;4.708;2023-04-24T12:54:42;5.10;;;1.60;;
19830;SDS011;10076;52.008;4.708;2023-04-24T12:57:08;7.87;;;1.80;;
19830;SDS011;10076;52.008;4.708;2023-04-24T12:59:33;4.70;;;1.63;;
19830;SDS011;10076;52.008;4.708;2023-04-24T13:01:58;6.30;;;1.60;;
19830;SDS011;10076;52.008;4.708;2023-04-24T13:04:23;4.90;;;1.47;;
19830;SDS011;10076;52.008;4.708;2023-04-24T13:06:49;4.97;;;1.57;;
19830;SDS011;10076;52.008;4.708;2023-04-24T13:09:15;2.00;;;1.10;;
19830;SDS011;10076;52.008;4.708;2023-04-24T13:11:40;5.07;;;1.37;;
19830;SDS011;10076;52.008;4.708;2023-04-24T13:14:06;3.33;;;1.50;;
19830;SDS011;10076;52.008;4.708;2023-04-24T13:16:31;5.53;;;1.40;;
19830;SDS011;10076;52.008;4.708;2023-04-24T13:18:56;4.73;;;1.33;;
19830;SDS011;10076;52.008;4.708;2023-04-24T13:21:22;3.53;;;1.53;;
19830;SDS011;10076;52.008;4.708;2023-04-24T13:23:47;6.57;;;1.70;;
19830;SDS011;10076;52.008;4.708;2023-04-24T13:26:12;5.70;;;2.23;;
19830;SDS011;10076;52.008;4.708;2023-04-24T13:28:37;3.17;;;1.60;;
19830;SDS011;10076;52.008;4.708;2023-04-24T13:31:03;2.60;;;1.13;;
19830;SDS011;10076;52.008;4.708;2023-04-24T13:33:28;9.97;;;1.50;;
19830;SDS011;10076;52.008;4.708;2023-04-24T13:35:54;3.30;;;1.70;;
19830;SDS011;10076;52.008;4.708;2023-04-24T13:38:19;6.50;;;1.97;;
19830;SDS011;10076;52.008;4.708;2023-04-24T13:40:46;4.93;;;1.33;;
19830;SDS011;10076;52.008;4.708;2023-04-24T13:43:11;3.83;;;1.57;;
19830;SDS011;10076;52.008;4.708;2023-04-24T13:45:37;6.10;;;1.73;;
19830;SDS011;10076;52.008;4.708;2023-04-24T13:48:02;6.03;;;1.33;;
19830;SDS011;10076;52.008;4.708;2023-04-24T13:50:28;3.90;;;1.30;;
19830;SDS011;10076;52.008;4.708;2023-04-24T13:52:53;1.87;;;1.30;;
19830;SDS011;10076;52.008;4.708;2023-04-24T13:55:19;7.93;;;1.33;;
19830;SDS011;10076;52.008;4.708;2023-04-24T13:57:44;3.47;;;1.33;;
19830;SDS011;10076;52.008;4.708;2023-04-24T14:00:10;8.50;;;1.43;;
19830;SDS011;10076;52.008;4.708;2023-04-24T14:02:36;6.20;;;1.60;;
19830;SDS011;10076;52.008;4.708;2023-04-24T14:05:01;5.67;;;1.60;;
19830;SDS011;10076;52.008;4.708;2023-04-24T14:07:28;3.87;;;1.80;;
19830;SDS011;10076;52.008;4.708;2023-04-24T14:09:53;9.07;;;1.73;;
19830;SDS011;10076;52.008;4.708;2023-04-24T14:12:19;7.17;;;2.47;;
19830;SDS011;10076;52.008;4.708;2023-04-24T14:14:46;6.70;;;1.97;;
19830;SDS011;10076;52.008;4.708;2023-04-24T14:17:13;5.77;;;2.00;;
19830;SDS011;10076;52.008;4.708;2023-04-24T14:19:38;4.43;;;1.53;;
19830;SDS011;10076;52.008;4.708;2023-04-24T14:22:03;4.40;;;1.50;;
19830;SDS011;10076;52.008;4.708;2023-04-24T14:24:28;5.60;;;2.20;;
19830;SDS011;10076;52.008;4.708;2023-04-24T14:26:54;4.93;;;1.83;;
19830;SDS011;10076;52.008;4.708;2023-04-24T14:29:19;6.97;;;1.90;;
19830;SDS011;10076;52.008;4.708;2023-04-24T14:31:44;7.17;;;1.73;;
19830;SDS011;10076;52.008;4.708;2023-04-24T14:34:11;9.37;;;2.20;;
19830;SDS011;10076;52.008;4.708;2023-04-24T14:36:38;5.63;;;1.93;;
19830;SDS011;10076;52.008;4.708;2023-04-24T14:39:03;12.00;;;2.30;;
19830;SDS011;10076;52.008;4.708;2023-04-24T14:41:31;4.00;;;1.90;;
19830;SDS011;10076;52.008;4.708;2023-04-24T14:43:58;4.60;;;2.13;;
19830;SDS011;10076;52.008;4.708;2023-04-24T14:46:24;6.93;;;2.03;;
19830;SDS011;10076;52.008;4.708;2023-04-24T14:48:49;7.57;;;1.90;;
19830;SDS011;10076;52.008;4.708;2023-04-24T14:51:15;5.43;;;1.90;;
19830;SDS011;10076;52.008;4.708;2023-04-24T14:53:40;12.70;;;2.30;;
19830;SDS011;10076;52.008;4.708;2023-04-24T14:56:05;7.47;;;2.13;;